createdAt,value
2019-02-26T00:02:02.705Z,3.54
2019-02-26T00:04:32.741Z,3.52
2019-02-26T00:07:02.905Z,3.51
2019-02-26T00:09:35.023Z,3.52
2019-02-26T00:12:03.875Z,3.56
2019-02-26T00:14:33.087Z,3.53
2019-02-26T00:17:06.167Z,3.49
2019-02-26T00:19:33.556Z,3.49
2019-02-26T00:22:02.794Z,3.50
2019-02-26T00:24:35.071Z,3.43
2019-02-26T00:29:38.221Z,3.44
2019-02-26T00:32:09.951Z,3.45
2019-02-26T00:34:41.090Z,3.36
2019-02-26T00:37:10.921Z,3.22
2019-02-26T00:39:40.414Z,3.24
2019-02-26T00:42:09.638Z,3.24
2019-02-26T00:44:39.399Z,3.29
2019-02-26T00:47:09.109Z,3.40
2019-02-26T00:49:38.297Z,3.49
2019-02-26T00:52:08.698Z,3.57
2019-02-26T00:54:39.329Z,3.62
2019-02-26T00:57:11.548Z,3.80
2019-02-26T01:02:09.135Z,3.95
2019-02-26T01:04:39.609Z,3.93
2019-02-26T01:07:11.007Z,3.84
2019-02-26T01:09:40.217Z,3.51
2019-02-26T01:12:11.792Z,3.17
2019-02-26T01:14:43.585Z,3.06
2019-02-26T01:17:14.803Z,2.83
2019-02-26T01:19:44.492Z,2.58
2019-02-26T01:22:13.719Z,2.48
2019-02-26T01:24:43.585Z,2.33
2019-02-26T01:27:12.842Z,2.37
2019-02-26T01:29:47.332Z,2.37
2019-02-26T01:54:35.694Z,2.32
2019-02-26T01:57:08.628Z,2.20
2019-02-26T01:59:36.107Z,2.22
2019-02-26T02:02:05.604Z,2.21
2019-02-26T02:04:37.095Z,2.02
2019-02-26T02:07:06.747Z,1.98
2019-02-26T02:09:36.004Z,2.07
2019-02-26T02:12:07.133Z,2.15
2019-02-26T02:14:37.324Z,2.05
2019-02-26T02:17:08.358Z,2.04
2019-02-26T02:19:38.485Z,2.03
2019-02-26T02:22:07.681Z,2.03
2019-02-26T02:24:39.237Z,2.00
2019-02-26T02:27:08.716Z,2.05
2019-02-26T02:29:41.774Z,2.14
2019-02-26T02:32:09.548Z,2.19
2019-02-26T02:34:40.023Z,2.20
2019-02-26T02:37:10.037Z,2.27
2019-02-26T02:39:39.539Z,2.30
2019-02-26T02:42:10.878Z,2.32
2019-02-26T02:44:42.385Z,2.37
2019-02-26T02:47:12.102Z,2.32
2019-02-26T02:49:42.480Z,2.31
2019-02-26T02:52:13.264Z,2.38
2019-02-26T02:54:44.198Z,2.40
2019-02-26T02:57:13.444Z,2.45
2019-02-26T02:59:43.268Z,2.47
2019-02-26T03:05:02.619Z,2.49
2019-02-26T03:07:32.098Z,2.48
2019-02-26T03:10:06.663Z,2.48
2019-02-26T03:12:35.723Z,2.50
2019-02-26T03:15:08.056Z,2.48
2019-02-26T03:17:36.588Z,2.52
2019-02-26T03:20:07.671Z,2.55
2019-02-26T03:22:39.696Z,2.54
2019-02-26T03:25:50.526Z,2.49
2019-02-26T03:28:19.969Z,2.45
2019-02-26T03:30:49.187Z,2.44
2019-02-26T03:33:18.471Z,2.41
2019-02-26T03:35:48.349Z,2.34
2019-02-26T03:38:20.627Z,2.31
2019-02-26T03:40:51.899Z,2.30
2019-02-26T03:43:21.933Z,2.28
2019-02-26T03:45:52.006Z,2.27
2019-02-26T03:48:21.228Z,2.28
2019-02-26T03:50:50.624Z,2.25
2019-02-26T03:53:20.129Z,2.24
2019-02-26T03:55:49.827Z,2.22
2019-02-26T03:58:19.320Z,2.24
2019-02-26T04:00:49.215Z,2.16
2019-02-26T04:03:18.989Z,2.06
2019-02-26T04:05:48.808Z,2.06
2019-02-26T04:08:20.102Z,2.02
2019-02-26T04:13:24.321Z,2.09
2019-02-26T04:15:56.335Z,2.07
2019-02-26T04:18:25.103Z,2.02
2019-02-26T04:20:56.817Z,1.90
2019-02-26T04:23:27.557Z,1.85
2019-02-26T04:26:32.239Z,1.83
2019-02-26T04:29:25.561Z,1.76
2019-02-26T04:32:35.581Z,1.69
2019-02-26T04:57:22.975Z,1.55
2019-02-26T04:59:52.793Z,1.56
2019-02-26T05:02:22.677Z,1.55
2019-02-26T05:04:53.104Z,1.55
2019-02-26T05:07:22.943Z,1.56
2019-02-26T05:09:55.834Z,1.54
2019-02-26T05:13:06.450Z,1.48
2019-02-26T05:15:34.398Z,1.37
2019-02-26T05:18:03.657Z,1.32
2019-02-26T05:20:34.160Z,1.30
2019-02-26T05:23:06.342Z,1.25
2019-02-26T05:25:39.231Z,1.27
2019-02-26T05:28:10.041Z,1.28
2019-02-26T05:30:40.438Z,1.29
2019-02-26T05:33:11.251Z,1.27
2019-02-26T05:35:43.808Z,1.28
2019-02-26T05:38:12.175Z,1.35
2019-02-26T05:40:42.749Z,1.45
2019-02-26T05:43:13.470Z,1.46
2019-02-26T05:45:43.056Z,1.39
2019-02-26T05:48:13.217Z,1.34
2019-02-26T05:50:44.918Z,1.15
2019-02-26T05:53:15.353Z,1.14
2019-02-26T05:56:03.909Z,1.21
2019-02-26T05:58:36.050Z,1.20
2019-02-26T06:01:04.636Z,1.19
2019-02-26T06:03:34.498Z,1.20
2019-02-26T06:06:04.088Z,1.19
2019-02-26T06:08:35.851Z,1.23
2019-02-26T06:11:04.544Z,1.25
2019-02-26T06:13:38.249Z,1.36
2019-02-26T06:16:07.699Z,1.38
2019-02-26T06:18:36.969Z,1.48
2019-02-26T06:21:06.213Z,1.60
2019-02-26T06:23:36.687Z,1.73
2019-02-26T06:28:38.057Z,1.75
2019-02-26T06:31:25.817Z,1.80
2019-02-26T06:33:55.185Z,1.80
2019-02-26T06:36:25.866Z,1.78
2019-02-26T06:41:32.855Z,1.84
2019-02-26T06:44:02.973Z,1.76
2019-02-26T06:46:33.700Z,1.66
2019-02-26T06:49:04.798Z,1.54
2019-02-26T06:51:34.635Z,1.52
2019-02-26T06:54:03.918Z,1.66
2019-02-26T06:56:37.090Z,1.74
2019-02-26T06:59:12.110Z,1.84
2019-02-26T07:01:42.122Z,1.92
2019-02-26T07:04:20.004Z,1.96
2019-02-26T07:06:49.671Z,1.95
2019-02-26T07:09:20.500Z,1.98
2019-02-26T07:17:21.820Z,2.28
2019-02-26T07:20:10.678Z,2.29
2019-02-26T07:22:41.562Z,2.38
2019-02-26T07:25:13.865Z,2.48
2019-02-26T07:27:43.608Z,2.55
2019-02-26T07:30:13.368Z,2.62
2019-02-26T07:32:45.731Z,2.71
2019-02-26T07:35:16.621Z,2.84
2019-02-26T07:37:45.679Z,2.99
2019-02-26T07:40:16.034Z,3.15
2019-02-26T07:42:49.172Z,3.28
2019-02-26T07:45:19.874Z,3.46
2019-02-26T07:47:52.862Z,3.65
2019-02-26T07:50:34.129Z,3.83
2019-02-26T07:53:02.257Z,4.01
2019-02-26T07:55:33.546Z,4.07
2019-02-26T07:58:06.052Z,4.11
2019-02-26T08:00:37.232Z,4.23
2019-02-26T08:03:06.415Z,4.13
2019-02-26T08:05:36.641Z,4.23
2019-02-26T08:08:10.193Z,4.29
2019-02-26T08:10:42.815Z,4.39
2019-02-26T08:13:12.286Z,4.47
2019-02-26T08:15:41.499Z,4.63
2019-02-26T08:18:11.150Z,4.88
2019-02-26T08:20:40.913Z,4.92
2019-02-26T08:23:10.517Z,5.18
2019-02-26T08:25:40.026Z,5.32
2019-02-26T08:28:09.553Z,5.51
2019-02-26T08:30:42.294Z,5.80
2019-02-26T08:33:10.046Z,6.10
2019-02-26T08:35:39.612Z,6.22
2019-02-26T08:38:09.485Z,6.35
2019-02-26T08:40:39.019Z,6.53
2019-02-26T08:43:08.830Z,6.65
2019-02-26T08:45:38.379Z,6.75
2019-02-26T08:48:07.966Z,6.74
2019-02-26T08:50:39.065Z,6.87
2019-02-26T08:53:08.587Z,6.98
2019-02-26T08:55:38.104Z,6.95
2019-02-26T08:58:09.570Z,7.05
2019-02-26T09:00:38.890Z,7.13
2019-02-26T09:03:10.605Z,7.15
2019-02-26T09:05:41.033Z,7.11
2019-02-26T09:08:11.437Z,7.01
2019-02-26T09:10:43.738Z,7.06
2019-02-26T09:13:14.693Z,7.19
2019-02-26T09:15:44.939Z,7.28
2019-02-26T09:18:15.009Z,7.39
2019-02-26T09:20:44.792Z,7.43
2019-02-26T09:23:18.870Z,7.48
2019-02-26T09:25:48.586Z,7.56
2019-02-26T09:28:17.306Z,7.73
2019-02-26T09:30:46.757Z,7.86
2019-02-26T09:33:15.989Z,7.97
2019-02-26T09:35:47.466Z,8.17
2019-02-26T09:38:17.633Z,8.33
2019-02-26T09:40:49.982Z,8.49
2019-02-26T09:43:21.596Z,8.72
2019-02-26T09:45:52.887Z,8.87
2019-02-26T09:48:22.322Z,9.07
2019-02-26T09:50:52.331Z,9.20
2019-02-26T09:53:22.395Z,9.33
2019-02-26T09:55:51.595Z,9.49
2019-02-26T09:58:23.017Z,9.60
2019-02-26T10:00:54.067Z,9.80
2019-02-26T10:03:23.256Z,9.91
2019-02-26T10:05:55.103Z,10.03
2019-02-26T10:08:25.350Z,10.16
2019-02-26T10:10:57.670Z,10.26
2019-02-26T10:13:27.745Z,10.46
2019-02-26T10:15:59.206Z,10.57
2019-02-26T10:18:30.933Z,10.71
2019-02-26T10:21:00.264Z,10.80
2019-02-26T10:23:32.971Z,11.04
2019-02-26T10:26:03.453Z,11.13
2019-02-26T10:28:35.154Z,11.35
2019-02-26T10:31:09.144Z,11.47
2019-02-26T10:33:38.656Z,11.88
2019-02-26T10:36:11.204Z,11.92
2019-02-26T10:38:40.412Z,12.02
2019-02-26T10:41:10.375Z,12.20
2019-02-26T10:43:40.125Z,12.20
2019-02-26T10:46:10.916Z,12.27
2019-02-26T10:51:28.709Z,12.16
2019-02-26T10:53:59.948Z,12.34
2019-02-26T10:56:30.681Z,12.46
2019-02-26T10:59:05.396Z,12.59
2019-02-26T11:01:33.763Z,12.60
2019-02-26T11:04:04.958Z,12.77
2019-02-26T11:06:38.273Z,12.90
2019-02-26T11:09:49.415Z,13.00
2019-02-26T11:12:16.925Z,13.11
2019-02-26T11:14:46.434Z,13.28
2019-02-26T11:17:17.969Z,13.36
2019-02-26T11:19:47.978Z,13.46
2019-02-26T11:22:21.289Z,13.56
2019-02-26T11:24:50.879Z,13.63
2019-02-26T11:27:21.434Z,13.69
2019-02-26T11:29:52.087Z,13.72
2019-02-26T11:32:22.855Z,13.85
2019-02-26T11:34:52.793Z,13.99
2019-02-26T11:37:24.842Z,14.11
2019-02-26T11:39:57.597Z,14.23
2019-02-26T11:42:28.694Z,14.40
2019-02-26T11:44:59.295Z,14.44
2019-02-26T11:47:28.532Z,14.48
2019-02-26T11:49:59.611Z,14.62
2019-02-26T11:52:29.799Z,14.67
2019-02-26T11:55:02.795Z,14.75
2019-02-26T11:57:34.903Z,14.86
2019-02-26T12:00:04.091Z,14.99
2019-02-26T12:02:34.395Z,15.14
2019-02-26T12:05:05.598Z,15.24
2019-02-26T12:07:35.654Z,15.35
2019-02-26T12:10:09.428Z,15.46
2019-02-26T12:12:37.052Z,15.54
2019-02-26T12:15:11.920Z,15.64
2019-02-26T12:20:29.024Z,15.73
2019-02-26T12:22:58.885Z,15.79
2019-02-26T12:25:28.395Z,15.87
2019-02-26T12:28:00.018Z,15.95
2019-02-26T12:30:29.730Z,16.03
2019-02-26T12:32:59.634Z,16.09
2019-02-26T12:35:30.380Z,16.16
2019-02-26T12:38:16.742Z,16.25
2019-02-26T12:40:33.924Z,16.33
2019-02-26T12:43:06.556Z,16.44
2019-02-26T12:45:37.882Z,16.51
2019-02-26T12:48:07.147Z,16.53
2019-02-26T12:50:40.422Z,16.57
2019-02-26T12:53:12.678Z,16.73
2019-02-26T12:58:10.638Z,16.99
2019-02-26T13:00:42.011Z,17.18
2019-02-26T13:03:12.603Z,17.32
2019-02-26T13:08:16.574Z,17.31
2019-02-26T13:10:49.564Z,17.39
2019-02-26T13:13:15.394Z,17.55
2019-02-26T13:15:44.806Z,17.67
2019-02-26T13:18:14.500Z,17.80
2019-02-26T13:20:43.706Z,17.83
2019-02-26T13:23:17.816Z,18.01
2019-02-26T13:25:44.135Z,18.12
2019-02-26T13:28:13.346Z,18.22
2019-02-26T13:31:04.389Z,18.36
2019-02-26T13:33:35.214Z,18.36
2019-02-26T13:38:58.454Z,18.57
2019-02-26T13:41:30.282Z,18.73
2019-02-26T13:43:59.005Z,19.20
2019-02-26T13:46:28.313Z,20.10
2019-02-26T13:48:57.894Z,21.57
2019-02-26T13:51:27.244Z,23.19
2019-02-26T13:53:56.431Z,24.01
2019-02-26T13:56:25.922Z,25.04
2019-02-26T13:58:55.407Z,25.72
2019-02-26T14:01:24.893Z,26.10
2019-02-26T14:03:54.112Z,26.24
2019-02-26T14:06:23.309Z,26.75
2019-02-26T14:08:52.785Z,26.76
2019-02-26T14:11:22.269Z,27.08
2019-02-26T14:13:51.522Z,27.38
2019-02-26T14:16:20.995Z,28.05
2019-02-26T14:18:50.541Z,27.80
2019-02-26T14:21:20.611Z,27.63
2019-02-26T14:23:50.667Z,27.75
2019-02-26T14:26:19.884Z,28.15
2019-02-26T14:28:49.735Z,28.00
2019-02-26T14:31:19.706Z,28.29
2019-02-26T14:33:49.478Z,28.19
2019-02-26T14:36:19.223Z,28.26
2019-02-26T14:38:48.447Z,28.29
2019-02-26T14:41:17.919Z,27.99
2019-02-26T14:43:47.455Z,28.08
2019-02-26T14:46:17.401Z,28.28
2019-02-26T14:48:47.196Z,28.19
2019-02-26T14:51:17.798Z,28.17
2019-02-26T14:53:49.145Z,28.04
2019-02-26T14:56:19.172Z,28.28
2019-02-26T14:58:48.414Z,27.95
2019-02-26T15:01:18.743Z,28.41
2019-02-26T15:03:48.453Z,26.97
2019-02-26T15:06:18.315Z,27.64
2019-02-26T15:08:48.368Z,28.11
2019-02-26T15:11:18.137Z,28.09
2019-02-26T15:13:47.196Z,28.34
2019-02-26T15:16:19.455Z,28.06
2019-02-26T15:18:49.477Z,27.23
2019-02-26T15:21:18.977Z,27.04
2019-02-26T15:23:50.244Z,27.70
2019-02-26T15:26:19.442Z,27.83
2019-02-26T15:28:49.167Z,28.04
2019-02-26T15:31:19.020Z,28.02
2019-02-26T15:33:49.014Z,27.74
2019-02-26T15:36:18.640Z,27.37
2019-02-26T15:38:48.119Z,27.64
2019-02-26T15:41:17.629Z,27.82
2019-02-26T15:43:46.889Z,27.38
2019-02-26T15:46:16.554Z,27.78
2019-02-26T15:48:46.042Z,27.57
2019-02-26T15:51:19.915Z,26.94
2019-02-26T15:53:46.591Z,26.65
2019-02-26T15:56:15.912Z,26.93
2019-02-26T15:58:45.131Z,26.05
2019-02-26T16:01:15.679Z,25.34
2019-02-26T16:03:47.576Z,24.80
2019-02-26T16:06:17.341Z,24.23
2019-02-26T16:08:47.600Z,24.07
2019-02-26T16:11:17.685Z,23.66
2019-02-26T16:13:47.852Z,24.04
2019-02-26T16:16:18.155Z,24.06
2019-02-26T16:18:47.990Z,24.22
2019-02-26T16:21:37.546Z,24.49
2019-02-26T16:24:07.036Z,24.16
2019-02-26T16:26:38.453Z,23.36
2019-02-26T16:29:07.859Z,23.12
2019-02-26T16:31:37.883Z,21.90
2019-02-26T16:34:07.338Z,20.47
2019-02-26T16:36:37.387Z,19.53
2019-02-26T16:39:07.727Z,18.73
2019-02-26T16:41:38.344Z,17.99
2019-02-26T16:44:08.866Z,17.35
2019-02-26T16:46:39.553Z,16.82
2019-02-26T16:49:09.788Z,16.46
2019-02-26T16:51:39.331Z,16.08
2019-02-26T16:54:10.655Z,15.73
2019-02-26T17:07:41.258Z,14.32
2019-02-26T17:10:17.670Z,14.11
2019-02-26T17:13:06.793Z,13.96
2019-02-26T17:15:36.586Z,13.76
2019-02-26T17:18:11.122Z,13.58
2019-02-26T17:39:49.316Z,12.41
2019-02-26T17:42:19.563Z,12.25
2019-02-26T17:44:50.011Z,12.17
2019-02-26T17:47:19.570Z,12.01
2019-02-26T17:49:48.961Z,12.30
2019-02-26T17:52:18.605Z,12.36
2019-02-26T17:54:49.736Z,12.58
2019-02-26T17:57:19.626Z,12.16
2019-02-26T17:59:48.914Z,11.87
2019-02-26T18:02:19.140Z,11.64
2019-02-26T18:04:49.163Z,11.49
2019-02-26T18:07:38.594Z,11.33
2019-02-26T18:10:12.760Z,11.35
2019-02-26T18:12:42.760Z,11.38
2019-02-26T18:18:23.078Z,11.05
2019-02-26T18:20:52.608Z,11.00
2019-02-26T18:23:22.233Z,10.89
2019-02-26T18:25:51.845Z,10.72
2019-02-26T18:31:35.540Z,10.67
2019-02-26T18:34:05.723Z,10.77
2019-02-26T18:36:38.098Z,10.55
2019-02-26T18:42:02.364Z,10.17
2019-02-26T18:44:31.899Z,9.95
2019-02-26T18:47:01.755Z,9.78
2019-02-26T18:49:31.002Z,9.73
2019-02-26T18:52:00.646Z,9.68
2019-02-26T18:54:31.363Z,9.69
2019-02-26T19:51:42.214Z,7.71
2019-02-26T19:54:11.508Z,7.57
2019-02-26T19:56:40.725Z,7.47
2019-02-26T19:59:13.468Z,7.49
2019-02-26T20:01:41.974Z,7.43
2019-02-26T20:04:11.503Z,7.44
2019-02-26T20:06:42.157Z,7.32
2019-02-26T20:09:11.867Z,7.20
2019-02-26T20:11:42.428Z,7.04
2019-02-26T20:30:39.566Z,6.50
2019-02-26T20:33:09.568Z,6.45
2019-02-26T20:35:39.395Z,6.42
2019-02-26T20:38:09.217Z,6.41
2019-02-26T20:40:57.050Z,6.43
2019-02-26T20:43:26.794Z,6.47
2019-02-26T20:45:56.359Z,6.49
2019-02-26T20:48:25.836Z,6.48
2019-02-26T20:50:56.554Z,6.43
2019-02-26T20:53:45.727Z,6.38
2019-02-26T20:56:14.976Z,6.42
2019-02-26T20:58:45.479Z,6.17
2019-02-26T21:01:16.434Z,6.36
2019-02-26T21:03:45.899Z,6.36
2019-02-26T21:06:18.008Z,6.37
2019-02-26T21:08:47.415Z,6.29
2019-02-26T21:11:16.998Z,6.21
2019-02-26T21:13:46.191Z,6.21
2019-02-26T21:16:18.602Z,6.26
2019-02-26T21:18:49.559Z,6.19
2019-02-26T21:21:19.155Z,6.16
2019-02-26T21:29:58.560Z,6.08
2019-02-26T21:32:28.401Z,6.10
2019-02-26T21:34:58.010Z,6.08
2019-02-26T21:37:27.803Z,6.10
2019-02-26T21:39:56.995Z,6.25
2019-02-26T21:42:28.926Z,6.08
2019-02-26T21:44:58.840Z,6.02
2019-02-26T21:47:28.100Z,5.99
2019-02-26T21:49:57.643Z,5.94
2019-02-26T21:52:27.439Z,5.81
2019-02-26T21:55:01.203Z,5.64
2019-02-26T21:57:29.498Z,5.59
2019-02-26T21:59:59.044Z,5.43
2019-02-26T22:02:28.536Z,5.31
2019-02-26T22:04:58.118Z,5.33
2019-02-26T22:07:27.650Z,5.21
2019-02-26T22:09:57.306Z,5.19
2019-02-26T22:12:26.646Z,5.23
2019-02-26T22:14:56.153Z,5.26
2019-02-26T22:17:25.869Z,5.24
2019-02-26T22:19:56.354Z,5.18
2019-02-26T22:22:26.696Z,5.13
2019-02-26T22:24:57.999Z,5.02
2019-02-26T22:27:27.523Z,5.05
2019-02-26T22:29:57.198Z,4.98
2019-02-26T22:32:26.743Z,4.97
2019-02-26T22:34:55.927Z,4.97
2019-02-26T22:37:25.976Z,5.02
2019-02-26T22:43:04.763Z,4.90
2019-02-26T22:45:33.972Z,4.88
2019-02-26T22:48:03.247Z,4.84
2019-02-26T22:50:33.072Z,4.79
2019-02-26T22:53:04.051Z,4.70
2019-02-26T22:55:34.361Z,4.67
2019-02-26T22:58:04.175Z,4.61
2019-02-26T23:01:17.784Z,4.67
2019-02-26T23:03:47.286Z,4.64
2019-02-26T23:06:17.228Z,4.68
2019-02-26T23:08:47.143Z,4.60
2019-02-26T23:11:17.759Z,4.62
2019-02-26T23:13:47.050Z,4.63
2019-02-26T23:16:19.570Z,4.57
2019-02-26T23:18:49.818Z,4.52
2019-02-26T23:21:20.386Z,4.55
2019-02-26T23:43:00.379Z,4.60
2019-02-26T23:45:30.199Z,4.57
2019-02-26T23:48:00.299Z,4.49
2019-02-26T23:53:18.272Z,4.37
2019-02-26T23:55:47.542Z,4.38
2019-02-26T23:58:17.057Z,4.38
